sensor_id;sensor_type;location;lat;lon;timestamp;P1;durP1;ratioP1;P2;durP2;ratioP2
74519;SDS011;63002;48.134;-1.948;2023-11-18T06:01:30;1.95;;;0.30;;
74519;SDS011;63002;48.134;-1.948;2023-11-18T06:03:57;1.65;;;0.30;;
74519;SDS011;63002;48.134;-1.948;2023-11-18T06:06:23;2.30;;;0.40;;
74519;SDS011;63002;48.134;-1.948;2023-11-18T06:08:48;1.38;;;0.30;;
74519;SDS011;63002;48.134;-1.948;2023-11-18T06:11:14;1.13;;;0.40;;
74519;SDS011;63002;48.134;-1.948;2023-11-18T06:13:41;1.57;;;0.73;;
74519;SDS011;63002;48.134;-1.948;2023-11-18T06:16:09;1.70;;;0.40;;
74519;SDS011;63002;48.134;-1.948;2023-11-18T06:18:39;1.15;;;0.30;;
74519;SDS011;63002;48.134;-1.948;2023-11-18T06:21:07;1.35;;;0.40;;
74519;SDS011;63002;48.134;-1.948;2023-11-18T06:23:35;1.08;;;0.30;;
74519;SDS011;63002;48.134;-1.948;2023-11-18T06:26:01;2.03;;;0.30;;
74519;SDS011;63002;48.134;-1.948;2023-11-18T06:28:27;0.98;;;0.30;;
74519;SDS011;63002;48.134;-1.948;2023-11-18T06:30:53;0.93;;;0.28;;
74519;SDS011;63002;48.134;-1.948;2023-11-18T06:33:19;0.97;;;0.20;;
74519;SDS011;63002;48.134;-1.948;2023-11-18T06:35:48;2.17;;;0.43;;
74519;SDS011;63002;48.134;-1.948;2023-11-18T06:38:14;1.60;;;0.50;;
74519;SDS011;63002;48.134;-1.948;2023-11-18T06:40:40;1.63;;;0.50;;
74519;SDS011;63002;48.134;-1.948;2023-11-18T06:43:06;2.20;;;0.30;;
74519;SDS011;63002;48.134;-1.948;2023-11-18T06:45:36;1.65;;;0.30;;
74519;SDS011;63002;48.134;-1.948;2023-11-18T06:48:05;1.52;;;0.30;;
74519;SDS011;63002;48.134;-1.948;2023-11-18T06:50:31;2.03;;;0.45;;
74519;SDS011;63002;48.134;-1.948;2023-11-18T06:52:57;2.58;;;0.40;;
74519;SDS011;63002;48.134;-1.948;2023-11-18T06:55:24;0.93;;;0.30;;
74519;SDS011;63002;48.134;-1.948;2023-11-18T06:57:51;0.77;;;0.30;;
74519;SDS011;63002;48.134;-1.948;2023-11-18T07:00:17;0.90;;;0.37;;
74519;SDS011;63002;48.134;-1.948;2023-11-18T07:02:43;1.00;;;0.30;;
74519;SDS011;63002;48.134;-1.948;2023-11-18T07:05:09;0.90;;;0.30;;
74519;SDS011;63002;48.134;-1.948;2023-11-18T07:07:35;1.77;;;0.30;;
74519;SDS011;63002;48.134;-1.948;2023-11-18T07:10:02;2.42;;;0.30;;
74519;SDS011;63002;48.134;-1.948;2023-11-18T07:12:31;0.90;;;0.30;;
74519;SDS011;63002;48.134;-1.948;2023-11-18T07:14:59;0.52;;;0.20;;
74519;SDS011;63002;48.134;-1.948;2023-11-18T07:17:26;0.90;;;0.30;;
74519;SDS011;63002;48.134;-1.948;2023-11-18T07:19:51;1.17;;;0.37;;
74519;SDS011;63002;48.134;-1.948;2023-11-18T07:22:17;0.88;;;0.30;;
74519;SDS011;63002;48.134;-1.948;2023-11-18T07:24:43;1.33;;;0.30;;
74519;SDS011;63002;48.134;-1.948;2023-11-18T07:27:08;2.37;;;0.23;;
74519;SDS011;63002;48.134;-1.948;2023-11-18T07:29:36;1.63;;;0.45;;
74519;SDS011;63002;48.134;-1.948;2023-11-18T07:32:02;0.95;;;0.40;;
74519;SDS011;63002;48.134;-1.948;2023-11-18T07:34:33;1.30;;;0.43;;
74519;SDS011;63002;48.134;-1.948;2023-11-18T07:37:00;1.47;;;0.30;;
74519;SDS011;63002;48.134;-1.948;2023-11-18T07:39:27;1.33;;;0.20;;
74519;SDS011;63002;48.134;-1.948;2023-11-18T07:42:09;1.00;;;0.43;;
74519;SDS011;63002;48.134;-1.948;2023-11-18T07:44:36;0.70;;;0.30;;
74519;SDS011;63002;48.134;-1.948;2023-11-18T07:47:03;1.42;;;0.45;;
74519;SDS011;63002;48.134;-1.948;2023-11-18T07:49:30;1.30;;;0.30;;
74519;SDS011;63002;48.134;-1.948;2023-11-18T07:51:57;2.30;;;0.45;;
74519;SDS011;63002;48.134;-1.948;2023-11-18T07:54:23;1.05;;;0.32;;
74519;SDS011;63002;48.134;-1.948;2023-11-18T07:56:49;1.00;;;0.30;;
74519;SDS011;63002;48.134;-1.948;2023-11-18T07:59:16;0.98;;;0.30;;
74519;SDS011;63002;48.134;-1.948;2023-11-18T08:01:43;0.85;;;0.20;;
74519;SDS011;63002;48.134;-1.948;2023-11-18T08:04:11;1.35;;;0.43;;
74519;SDS011;63002;48.134;-1.948;2023-11-18T08:06:39;3.30;;;0.30;;
74519;SDS011;63002;48.134;-1.948;2023-11-18T08:09:06;1.03;;;0.20;;
74519;SDS011;63002;48.134;-1.948;2023-11-18T08:11:36;1.80;;;0.30;;
74519;SDS011;63002;48.134;-1.948;2023-11-18T08:14:02;1.33;;;0.20;;
74519;SDS011;63002;48.134;-1.948;2023-11-18T08:16:28;1.92;;;0.35;;
74519;SDS011;63002;48.134;-1.948;2023-11-18T08:18:54;1.23;;;0.40;;
74519;SDS011;63002;48.134;-1.948;2023-11-18T08:21:20;1.17;;;0.38;;
74519;SDS011;63002;48.134;-1.948;2023-11-18T08:23:47;8.98;;;0.82;;
74519;SDS011;63002;48.134;-1.948;2023-11-18T08:26:13;9.38;;;1.13;;
74519;SDS011;63002;48.134;-1.948;2023-11-18T08:28:40;3.47;;;0.60;;
74519;SDS011;63002;48.134;-1.948;2023-11-18T08:31:06;3.55;;;0.40;;
74519;SDS011;63002;48.134;-1.948;2023-11-18T08:33:32;4.65;;;0.50;;
74519;SDS011;63002;48.134;-1.948;2023-11-18T08:35:59;3.33;;;0.52;;
74519;SDS011;63002;48.134;-1.948;2023-11-18T08:38:26;2.33;;;0.37;;
74519;SDS011;63002;48.134;-1.948;2023-11-18T08:40:53;4.88;;;0.50;;
74519;SDS011;63002;48.134;-1.948;2023-11-18T08:43:20;5.53;;;0.70;;
74519;SDS011;63002;48.134;-1.948;2023-11-18T08:45:46;3.80;;;0.50;;
74519;SDS011;63002;48.134;-1.948;2023-11-18T08:48:12;7.50;;;0.50;;
74519;SDS011;63002;48.134;-1.948;2023-11-18T08:50:38;4.10;;;0.50;;
74519;SDS011;63002;48.134;-1.948;2023-11-18T08:53:08;2.30;;;0.40;;
74519;SDS011;63002;48.134;-1.948;2023-11-18T08:55:34;3.22;;;0.40;;
74519;SDS011;63002;48.134;-1.948;2023-11-18T08:58:18;3.75;;;0.55;;
74519;SDS011;63002;48.134;-1.948;2023-11-18T09:00:48;3.50;;;0.67;;
74519;SDS011;63002;48.134;-1.948;2023-11-18T09:03:22;2.22;;;0.40;;
74519;SDS011;63002;48.134;-1.948;2023-11-18T09:05:52;4.75;;;0.70;;
74519;SDS011;63002;48.134;-1.948;2023-11-18T09:08:30;5.13;;;0.57;;
74519;SDS011;63002;48.134;-1.948;2023-11-18T09:11:13;3.08;;;0.70;;
74519;SDS011;63002;48.134;-1.948;2023-11-18T09:13:41;3.67;;;0.53;;
74519;SDS011;63002;48.134;-1.948;2023-11-18T09:16:10;4.55;;;0.80;;
74519;SDS011;63002;48.134;-1.948;2023-11-18T09:18:39;3.72;;;0.50;;
74519;SDS011;63002;48.134;-1.948;2023-11-18T09:21:08;6.22;;;0.50;;
74519;SDS011;63002;48.134;-1.948;2023-11-18T09:23:39;11.13;;;1.30;;
74519;SDS011;63002;48.134;-1.948;2023-11-18T09:26:06;5.07;;;1.00;;
74519;SDS011;63002;48.134;-1.948;2023-11-18T09:28:33;6.00;;;0.93;;
74519;SDS011;63002;48.134;-1.948;2023-11-18T09:31:00;4.85;;;1.00;;
74519;SDS011;63002;48.134;-1.948;2023-11-18T09:33:29;4.43;;;0.70;;
74519;SDS011;63002;48.134;-1.948;2023-11-18T09:36:03;4.43;;;0.70;;
74519;SDS011;63002;48.134;-1.948;2023-11-18T09:38:36;4.73;;;0.73;;
74519;SDS011;63002;48.134;-1.948;2023-11-18T09:41:05;4.35;;;0.60;;
74519;SDS011;63002;48.134;-1.948;2023-11-18T09:43:36;4.90;;;0.77;;
74519;SDS011;63002;48.134;-1.948;2023-11-18T09:46:25;5.57;;;1.00;;
74519;SDS011;63002;48.134;-1.948;2023-11-18T09:51:27;4.53;;;0.80;;
74519;SDS011;63002;48.134;-1.948;2023-11-18T09:53:59;6.93;;;1.08;;
74519;SDS011;63002;48.134;-1.948;2023-11-18T09:56:40;4.43;;;1.00;;
74519;SDS011;63002;48.134;-1.948;2023-11-18T09:59:28;5.38;;;0.88;;
74519;SDS011;63002;48.134;-1.948;2023-11-18T10:01:59;5.72;;;1.15;;
74519;SDS011;63002;48.134;-1.948;2023-11-18T10:04:35;5.77;;;0.97;;
74519;SDS011;63002;48.134;-1.948;2023-11-18T10:07:08;4.40;;;1.00;;
74519;SDS011;63002;48.134;-1.948;2023-11-18T10:09:36;5.97;;;0.90;;
74519;SDS011;63002;48.134;-1.948;2023-11-18T10:12:07;4.93;;;0.80;;
74519;SDS011;63002;48.134;-1.948;2023-11-18T10:14:33;6.43;;;1.00;;
74519;SDS011;63002;48.134;-1.948;2023-11-18T10:17:04;6.30;;;1.13;;
74519;SDS011;63002;48.134;-1.948;2023-11-18T10:22:22;6.97;;;1.00;;
74519;SDS011;63002;48.134;-1.948;2023-11-18T10:24:49;6.40;;;1.00;;
74519;SDS011;63002;48.134;-1.948;2023-11-18T10:27:19;5.63;;;0.98;;
74519;SDS011;63002;48.134;-1.948;2023-11-18T10:29:50;8.40;;;1.30;;
74519;SDS011;63002;48.134;-1.948;2023-11-18T10:32:17;4.85;;;0.80;;
74519;SDS011;63002;48.134;-1.948;2023-11-18T10:34:46;4.88;;;0.90;;
74519;SDS011;63002;48.134;-1.948;2023-11-18T10:37:14;6.88;;;0.98;;
74519;SDS011;63002;48.134;-1.948;2023-11-18T10:39:42;4.57;;;1.10;;
74519;SDS011;63002;48.134;-1.948;2023-11-18T10:42:13;6.87;;;1.20;;
74519;SDS011;63002;48.134;-1.948;2023-11-18T10:45:03;4.75;;;0.95;;
74519;SDS011;63002;48.134;-1.948;2023-11-18T10:47:32;5.45;;;1.13;;
74519;SDS011;63002;48.134;-1.948;2023-11-18T10:50:00;5.68;;;1.10;;
74519;SDS011;63002;48.134;-1.948;2023-11-18T10:52:26;5.05;;;1.27;;
74519;SDS011;63002;48.134;-1.948;2023-11-18T10:55:00;3.20;;;0.70;;
74519;SDS011;63002;48.134;-1.948;2023-11-18T10:57:32;7.05;;;0.70;;
74519;SDS011;63002;48.134;-1.948;2023-11-18T11:00:01;6.15;;;0.98;;
74519;SDS011;63002;48.134;-1.948;2023-11-18T11:02:32;6.00;;;0.90;;
74519;SDS011;63002;48.134;-1.948;2023-11-18T11:05:04;6.10;;;1.10;;
74519;SDS011;63002;48.134;-1.948;2023-11-18T11:07:40;4.17;;;0.70;;
74519;SDS011;63002;48.134;-1.948;2023-11-18T11:10:07;4.75;;;0.70;;
74519;SDS011;63002;48.134;-1.948;2023-11-18T11:12:38;5.60;;;0.90;;
74519;SDS011;63002;48.134;-1.948;2023-11-18T11:15:17;4.15;;;1.00;;
74519;SDS011;63002;48.134;-1.948;2023-11-18T11:17:54;4.88;;;0.95;;
74519;SDS011;63002;48.134;-1.948;2023-11-18T11:20:41;4.53;;;0.90;;
74519;SDS011;63002;48.134;-1.948;2023-11-18T11:23:30;4.85;;;0.90;;
74519;SDS011;63002;48.134;-1.948;2023-11-18T11:28:52;6.43;;;0.80;;
74519;SDS011;63002;48.134;-1.948;2023-11-18T11:31:31;5.57;;;1.15;;
74519;SDS011;63002;48.134;-1.948;2023-11-18T11:34:04;12.30;;;1.63;;
74519;SDS011;63002;48.134;-1.948;2023-11-18T11:36:42;6.60;;;1.17;;
74519;SDS011;63002;48.134;-1.948;2023-11-18T11:39:11;6.90;;;0.90;;
74519;SDS011;63002;48.134;-1.948;2023-11-18T11:41:44;6.50;;;1.13;;
74519;SDS011;63002;48.134;-1.948;2023-11-18T11:44:15;9.30;;;1.15;;
74519;SDS011;63002;48.134;-1.948;2023-11-18T11:46:41;13.50;;;1.40;;
74519;SDS011;63002;48.134;-1.948;2023-11-18T11:49:08;5.72;;;1.00;;
74519;SDS011;63002;48.134;-1.948;2023-11-18T11:55:07;22.48;;;4.57;;
74519;SDS011;63002;48.134;-1.948;2023-11-18T11:57:40;56.70;;;11.38;;
74519;SDS011;63002;48.134;-1.948;2023-11-18T12:00:10;55.10;;;12.07;;
74519;SDS011;63002;48.134;-1.948;2023-11-18T12:02:48;50.40;;;11.18;;
74519;SDS011;63002;48.134;-1.948;2023-11-18T12:05:17;53.95;;;11.98;;
74519;SDS011;63002;48.134;-1.948;2023-11-18T12:07:50;43.20;;;10.93;;
74519;SDS011;63002;48.134;-1.948;2023-11-18T12:10:20;54.13;;;12.27;;
74519;SDS011;63002;48.134;-1.948;2023-11-18T12:12:47;34.33;;;6.60;;
74519;SDS011;63002;48.134;-1.948;2023-11-18T12:15:13;29.50;;;6.45;;
74519;SDS011;63002;48.134;-1.948;2023-11-18T12:23:20;23.42;;;5.32;;
74519;SDS011;63002;48.134;-1.948;2023-11-18T12:25:50;17.00;;;4.73;;
74519;SDS011;63002;48.134;-1.948;2023-11-18T12:28:20;27.00;;;5.05;;
74519;SDS011;63002;48.134;-1.948;2023-11-18T12:30:52;28.67;;;6.22;;
74519;SDS011;63002;48.134;-1.948;2023-11-18T12:33:24;19.58;;;4.40;;
74519;SDS011;63002;48.134;-1.948;2023-11-18T12:41:38;17.52;;;3.95;;
74519;SDS011;63002;48.134;-1.948;2023-11-18T12:47:10;15.80;;;3.50;;
74519;SDS011;63002;48.134;-1.948;2023-11-18T12:49:43;14.07;;;3.25;;
74519;SDS011;63002;48.134;-1.948;2023-11-18T12:52:15;14.23;;;3.67;;
74519;SDS011;63002;48.134;-1.948;2023-11-18T12:54:44;12.57;;;2.70;;
74519;SDS011;63002;48.134;-1.948;2023-11-18T12:57:15;10.27;;;2.00;;
74519;SDS011;63002;48.134;-1.948;2023-11-18T12:59:47;9.77;;;2.05;;
74519;SDS011;63002;48.134;-1.948;2023-11-18T13:02:15;12.65;;;1.88;;
74519;SDS011;63002;48.134;-1.948;2023-11-18T13:04:48;13.17;;;2.13;;
74519;SDS011;63002;48.134;-1.948;2023-11-18T13:07:17;8.02;;;1.70;;
74519;SDS011;63002;48.134;-1.948;2023-11-18T13:09:50;10.73;;;1.80;;
74519;SDS011;63002;48.134;-1.948;2023-11-18T13:12:16;7.45;;;1.55;;
74519;SDS011;63002;48.134;-1.948;2023-11-18T13:14:45;8.88;;;1.67;;
74519;SDS011;63002;48.134;-1.948;2023-11-18T13:17:13;8.43;;;1.50;;
74519;SDS011;63002;48.134;-1.948;2023-11-18T13:19:41;7.07;;;1.40;;
74519;SDS011;63002;48.134;-1.948;2023-11-18T13:22:09;8.68;;;1.63;;
74519;SDS011;63002;48.134;-1.948;2023-11-18T13:24:40;7.68;;;1.20;;
74519;SDS011;63002;48.134;-1.948;2023-11-18T13:27:09;6.72;;;1.50;;
74519;SDS011;63002;48.134;-1.948;2023-11-18T13:29:37;6.90;;;1.10;;
74519;SDS011;63002;48.134;-1.948;2023-11-18T13:32:06;7.10;;;1.23;;
74519;SDS011;63002;48.134;-1.948;2023-11-18T13:34:36;9.20;;;1.45;;
74519;SDS011;63002;48.134;-1.948;2023-11-18T13:37:05;5.10;;;1.00;;
74519;SDS011;63002;48.134;-1.948;2023-11-18T13:39:32;6.22;;;1.30;;
74519;SDS011;63002;48.134;-1.948;2023-11-18T13:41:58;7.73;;;1.43;;
74519;SDS011;63002;48.134;-1.948;2023-11-18T13:44:43;5.30;;;0.73;;
74519;SDS011;63002;48.134;-1.948;2023-11-18T13:47:11;6.05;;;1.33;;
74519;SDS011;63002;48.134;-1.948;2023-11-18T13:49:37;7.10;;;1.20;;
74519;SDS011;63002;48.134;-1.948;2023-11-18T13:52:06;4.73;;;1.00;;
74519;SDS011;63002;48.134;-1.948;2023-11-18T13:54:35;5.22;;;1.00;;
74519;SDS011;63002;48.134;-1.948;2023-11-18T13:57:02;7.93;;;1.35;;
74519;SDS011;63002;48.134;-1.948;2023-11-18T13:59:29;6.30;;;1.10;;
74519;SDS011;63002;48.134;-1.948;2023-11-18T14:01:55;5.63;;;1.50;;
74519;SDS011;63002;48.134;-1.948;2023-11-18T14:04:22;4.37;;;0.90;;
74519;SDS011;63002;48.134;-1.948;2023-11-18T14:06:52;6.30;;;1.00;;
74519;SDS011;63002;48.134;-1.948;2023-11-18T14:09:21;3.95;;;1.08;;
74519;SDS011;63002;48.134;-1.948;2023-11-18T14:11:50;5.50;;;0.90;;
74519;SDS011;63002;48.134;-1.948;2023-11-18T14:14:16;6.47;;;0.82;;
74519;SDS011;63002;48.134;-1.948;2023-11-18T14:16:43;7.10;;;1.07;;
74519;SDS011;63002;48.134;-1.948;2023-11-18T14:19:09;4.05;;;0.90;;
74519;SDS011;63002;48.134;-1.948;2023-11-18T14:21:36;4.85;;;0.88;;
74519;SDS011;63002;48.134;-1.948;2023-11-18T14:24:02;3.50;;;0.90;;
74519;SDS011;63002;48.134;-1.948;2023-11-18T14:26:28;3.55;;;0.80;;
74519;SDS011;63002;48.134;-1.948;2023-11-18T14:28:56;5.82;;;1.33;;
74519;SDS011;63002;48.134;-1.948;2023-11-18T14:31:24;3.75;;;0.70;;
74519;SDS011;63002;48.134;-1.948;2023-11-18T14:33:50;3.22;;;0.82;;
74519;SDS011;63002;48.134;-1.948;2023-11-18T14:36:16;5.65;;;1.10;;
74519;SDS011;63002;48.134;-1.948;2023-11-18T14:38:44;5.33;;;1.47;;
74519;SDS011;63002;48.134;-1.948;2023-11-18T14:41:10;6.28;;;1.08;;
74519;SDS011;63002;48.134;-1.948;2023-11-18T14:43:36;4.70;;;0.80;;
74519;SDS011;63002;48.134;-1.948;2023-11-18T14:46:02;4.15;;;0.70;;
74519;SDS011;63002;48.134;-1.948;2023-11-18T14:48:29;4.85;;;0.60;;
74519;SDS011;63002;48.134;-1.948;2023-11-18T14:50:54;3.60;;;0.60;;
74519;SDS011;63002;48.134;-1.948;2023-11-18T14:53:22;3.63;;;0.63;;
74519;SDS011;63002;48.134;-1.948;2023-11-18T14:55:48;5.28;;;0.50;;
74519;SDS011;63002;48.134;-1.948;2023-11-18T14:58:14;3.30;;;0.60;;
74519;SDS011;63002;48.134;-1.948;2023-11-18T15:00:39;3.58;;;0.73;;
74519;SDS011;63002;48.134;-1.948;2023-11-18T15:03:07;6.00;;;0.77;;
74519;SDS011;63002;48.134;-1.948;2023-11-18T15:05:33;4.50;;;0.60;;
74519;SDS011;63002;48.134;-1.948;2023-11-18T15:07:59;3.30;;;0.60;;
74519;SDS011;63002;48.134;-1.948;2023-11-18T15:10:26;2.75;;;0.60;;
74519;SDS011;63002;48.134;-1.948;2023-11-18T15:12:53;3.75;;;0.60;;
74519;SDS011;63002;48.134;-1.948;2023-11-18T15:15:23;3.08;;;0.60;;
74519;SDS011;63002;48.134;-1.948;2023-11-18T15:18:06;3.03;;;0.60;;
74519;SDS011;63002;48.134;-1.948;2023-11-18T15:20:34;6.57;;;1.13;;
74519;SDS011;63002;48.134;-1.948;2023-11-18T15:23:03;3.03;;;0.50;;
74519;SDS011;63002;48.134;-1.948;2023-11-18T15:25:29;4.93;;;0.80;;
74519;SDS011;63002;48.134;-1.948;2023-11-18T15:27:55;2.87;;;0.50;;
74519;SDS011;63002;48.134;-1.948;2023-11-18T15:30:22;5.30;;;0.65;;
74519;SDS011;63002;48.134;-1.948;2023-11-18T15:32:49;3.13;;;0.70;;
74519;SDS011;63002;48.134;-1.948;2023-11-18T15:35:17;3.65;;;0.73;;
74519;SDS011;63002;48.134;-1.948;2023-11-18T15:37:43;2.78;;;0.60;;
74519;SDS011;63002;48.134;-1.948;2023-11-18T15:40:15;3.80;;;0.90;;
74519;SDS011;63002;48.134;-1.948;2023-11-18T15:42:45;3.30;;;0.52;;
74519;SDS011;63002;48.134;-1.948;2023-11-18T15:45:17;3.08;;;0.50;;
74519;SDS011;63002;48.134;-1.948;2023-11-18T15:47:45;2.63;;;0.60;;
74519;SDS011;63002;48.134;-1.948;2023-11-18T15:50:13;3.42;;;0.57;;
74519;SDS011;63002;48.134;-1.948;2023-11-18T15:52:50;4.63;;;0.90;;
74519;SDS011;63002;48.134;-1.948;2023-11-18T15:55:18;5.00;;;0.50;;
74519;SDS011;63002;48.134;-1.948;2023-11-18T15:57:46;3.53;;;0.50;;
74519;SDS011;63002;48.134;-1.948;2023-11-18T16:00:13;3.92;;;0.45;;
74519;SDS011;63002;48.134;-1.948;2023-11-18T16:02:45;2.92;;;0.60;;
74519;SDS011;63002;48.134;-1.948;2023-11-18T16:05:13;1.85;;;0.55;;
74519;SDS011;63002;48.134;-1.948;2023-11-18T16:07:41;2.28;;;0.45;;
74519;SDS011;63002;48.134;-1.948;2023-11-18T16:10:08;11.88;;;0.93;;
74519;SDS011;63002;48.134;-1.948;2023-11-18T16:12:34;4.22;;;0.65;;
74519;SDS011;63002;48.134;-1.948;2023-11-18T16:15:00;3.33;;;0.93;;
74519;SDS011;63002;48.134;-1.948;2023-11-18T16:17:26;4.90;;;0.57;;
74519;SDS011;63002;48.134;-1.948;2023-11-18T16:19:55;4.05;;;0.70;;
74519;SDS011;63002;48.134;-1.948;2023-11-18T16:22:24;4.37;;;0.70;;
74519;SDS011;63002;48.134;-1.948;2023-11-18T16:24:49;5.18;;;0.60;;
74519;SDS011;63002;48.134;-1.948;2023-11-18T16:27:15;6.77;;;0.60;;
74519;SDS011;63002;48.134;-1.948;2023-11-18T16:29:41;5.45;;;1.23;;
74519;SDS011;63002;48.134;-1.948;2023-11-18T16:32:07;7.28;;;0.75;;
74519;SDS011;63002;48.134;-1.948;2023-11-18T16:34:34;5.13;;;0.50;;
74519;SDS011;63002;48.134;-1.948;2023-11-18T16:37:00;5.57;;;0.60;;
74519;SDS011;63002;48.134;-1.948;2023-11-18T16:39:27;6.47;;;0.70;;
74519;SDS011;63002;48.134;-1.948;2023-11-18T16:41:52;19.10;;;4.20;;
74519;SDS011;63002;48.134;-1.948;2023-11-18T16:44:19;33.38;;;5.47;;
74519;SDS011;63002;48.134;-1.948;2023-11-18T16:46:45;34.00;;;8.30;;
74519;SDS011;63002;48.134;-1.948;2023-11-18T16:49:11;29.70;;;6.67;;
74519;SDS011;63002;48.134;-1.948;2023-11-18T16:51:39;32.50;;;7.18;;
74519;SDS011;63002;48.134;-1.948;2023-11-18T16:54:05;20.77;;;5.47;;
74519;SDS011;63002;48.134;-1.948;2023-11-18T16:56:36;31.83;;;6.53;;
74519;SDS011;63002;48.134;-1.948;2023-11-18T16:59:01;21.60;;;5.78;;
74519;SDS011;63002;48.134;-1.948;2023-11-18T17:01:28;17.35;;;4.35;;
74519;SDS011;63002;48.134;-1.948;2023-11-18T17:03:54;18.05;;;4.18;;
74519;SDS011;63002;48.134;-1.948;2023-11-18T17:06:19;15.77;;;3.60;;
74519;SDS011;63002;48.134;-1.948;2023-11-18T17:08:48;16.63;;;2.75;;
74519;SDS011;63002;48.134;-1.948;2023-11-18T17:11:14;14.43;;;2.38;;
74519;SDS011;63002;48.134;-1.948;2023-11-18T17:13:40;10.05;;;1.92;;
74519;SDS011;63002;48.134;-1.948;2023-11-18T17:16:06;8.77;;;1.83;;
74519;SDS011;63002;48.134;-1.948;2023-11-18T17:18:32;9.70;;;1.60;;
74519;SDS011;63002;48.134;-1.948;2023-11-18T17:20:58;7.77;;;1.30;;
74519;SDS011;63002;48.134;-1.948;2023-11-18T17:23:25;8.20;;;1.52;;
74519;SDS011;63002;48.134;-1.948;2023-11-18T17:25:51;5.88;;;1.23;;
74519;SDS011;63002;48.134;-1.948;2023-11-18T17:28:18;5.72;;;1.15;;
74519;SDS011;63002;48.134;-1.948;2023-11-18T17:30:44;8.73;;;1.13;;
74519;SDS011;63002;48.134;-1.948;2023-11-18T17:33:10;4.25;;;0.73;;
74519;SDS011;63002;48.134;-1.948;2023-11-18T17:35:37;5.68;;;0.98;;
74519;SDS011;63002;48.134;-1.948;2023-11-18T17:38:02;5.30;;;0.90;;
74519;SDS011;63002;48.134;-1.948;2023-11-18T17:40:31;3.75;;;0.68;;
74519;SDS011;63002;48.134;-1.948;2023-11-18T17:42:57;5.65;;;1.15;;
74519;SDS011;63002;48.134;-1.948;2023-11-18T17:45:23;13.05;;;1.08;;
74519;SDS011;63002;48.134;-1.948;2023-11-18T17:47:55;4.30;;;0.60;;
74519;SDS011;63002;48.134;-1.948;2023-11-18T17:50:21;4.25;;;1.00;;
74519;SDS011;63002;48.134;-1.948;2023-11-18T17:52:47;4.95;;;0.73;;
74519;SDS011;63002;48.134;-1.948;2023-11-18T17:55:15;7.00;;;0.70;;
74519;SDS011;63002;48.134;-1.948;2023-11-18T17:57:41;4.23;;;0.80;;
74519;SDS011;63002;48.134;-1.948;2023-11-18T18:00:10;5.10;;;0.88;;
74519;SDS011;63002;48.134;-1.948;2023-11-18T18:02:40;14.20;;;1.20;;
74519;SDS011;63002;48.134;-1.948;2023-11-18T18:05:07;8.32;;;1.23;;
74519;SDS011;63002;48.134;-1.948;2023-11-18T18:07:33;5.00;;;1.08;;
74519;SDS011;63002;48.134;-1.948;2023-11-18T18:09:59;5.10;;;0.90;;
74519;SDS011;63002;48.134;-1.948;2023-11-18T18:12:26;4.50;;;0.80;;
74519;SDS011;63002;48.134;-1.948;2023-11-18T18:14:52;4.30;;;0.85;;
74519;SDS011;63002;48.134;-1.948;2023-11-18T18:17:18;3.17;;;0.63;;
74519;SDS011;63002;48.134;-1.948;2023-11-18T18:19:44;3.63;;;0.75;;
74519;SDS011;63002;48.134;-1.948;2023-11-18T18:22:10;6.93;;;0.55;;
74519;SDS011;63002;48.134;-1.948;2023-11-18T18:24:39;5.35;;;1.00;;
74519;SDS011;63002;48.134;-1.948;2023-11-18T18:27:04;5.37;;;0.80;;
74519;SDS011;63002;48.134;-1.948;2023-11-18T18:29:30;2.92;;;0.88;;
74519;SDS011;63002;48.134;-1.948;2023-11-18T18:31:56;6.10;;;0.82;;
74519;SDS011;63002;48.134;-1.948;2023-11-18T18:34:23;1.75;;;0.50;;
74519;SDS011;63002;48.134;-1.948;2023-11-18T18:36:49;6.95;;;0.80;;
74519;SDS011;63002;48.134;-1.948;2023-11-18T18:39:14;3.90;;;0.70;;
74519;SDS011;63002;48.134;-1.948;2023-11-18T18:41:41;3.28;;;0.80;;
74519;SDS011;63002;48.134;-1.948;2023-11-18T18:44:07;5.28;;;0.73;;
74519;SDS011;63002;48.134;-1.948;2023-11-18T18:46:33;4.43;;;0.70;;
74519;SDS011;63002;48.134;-1.948;2023-11-18T18:48:59;3.33;;;0.60;;
74519;SDS011;63002;48.134;-1.948;2023-11-18T18:51:24;2.00;;;0.43;;
74519;SDS011;63002;48.134;-1.948;2023-11-18T18:53:50;2.42;;;0.80;;
74519;SDS011;63002;48.134;-1.948;2023-11-18T18:56:16;7.27;;;0.80;;
74519;SDS011;63002;48.134;-1.948;2023-11-18T18:58:42;6.15;;;0.60;;
74519;SDS011;63002;48.134;-1.948;2023-11-18T19:01:08;7.03;;;1.30;;
74519;SDS011;63002;48.134;-1.948;2023-11-18T19:03:37;8.90;;;1.13;;
74519;SDS011;63002;48.134;-1.948;2023-11-18T19:06:04;8.73;;;1.33;;
74519;SDS011;63002;48.134;-1.948;2023-11-18T19:08:30;12.55;;;1.75;;
74519;SDS011;63002;48.134;-1.948;2023-11-18T19:10:56;3.50;;;0.87;;
74519;SDS011;63002;48.134;-1.948;2023-11-18T19:13:21;7.82;;;0.90;;
74519;SDS011;63002;48.134;-1.948;2023-11-18T19:15:47;17.73;;;1.92;;
74519;SDS011;63002;48.134;-1.948;2023-11-18T19:18:17;9.05;;;0.95;;
74519;SDS011;63002;48.134;-1.948;2023-11-18T19:20:43;7.65;;;1.38;;
74519;SDS011;63002;48.134;-1.948;2023-11-18T19:23:09;6.82;;;1.73;;
74519;SDS011;63002;48.134;-1.948;2023-11-18T19:25:34;10.53;;;0.90;;
74519;SDS011;63002;48.134;-1.948;2023-11-18T19:28:01;8.85;;;1.08;;
74519;SDS011;63002;48.134;-1.948;2023-11-18T19:30:28;11.63;;;1.83;;
74519;SDS011;63002;48.134;-1.948;2023-11-18T19:32:55;10.10;;;1.10;;
74519;SDS011;63002;48.134;-1.948;2023-11-18T19:35:21;9.38;;;1.17;;
74519;SDS011;63002;48.134;-1.948;2023-11-18T19:37:47;7.20;;;1.38;;
74519;SDS011;63002;48.134;-1.948;2023-11-18T19:40:13;4.97;;;0.85;;
74519;SDS011;63002;48.134;-1.948;2023-11-18T19:42:40;7.33;;;1.20;;
74519;SDS011;63002;48.134;-1.948;2023-11-18T19:45:07;6.05;;;0.80;;
74519;SDS011;63002;48.134;-1.948;2023-11-18T19:47:34;9.50;;;1.25;;
74519;SDS011;63002;48.134;-1.948;2023-11-18T19:50:01;5.35;;;0.68;;
74519;SDS011;63002;48.134;-1.948;2023-11-18T19:52:29;6.45;;;0.85;;
74519;SDS011;63002;48.134;-1.948;2023-11-18T19:54:55;5.53;;;0.90;;
74519;SDS011;63002;48.134;-1.948;2023-11-18T19:57:21;6.80;;;0.75;;
74519;SDS011;63002;48.134;-1.948;2023-11-18T19:59:47;5.32;;;1.00;;
74519;SDS011;63002;48.134;-1.948;2023-11-18T20:02:14;5.75;;;0.65;;
74519;SDS011;63002;48.134;-1.948;2023-11-18T20:04:41;5.22;;;0.90;;
74519;SDS011;63002;48.134;-1.948;2023-11-18T20:07:08;3.05;;;0.80;;
74519;SDS011;63002;48.134;-1.948;2023-11-18T20:09:34;4.93;;;1.00;;
74519;SDS011;63002;48.134;-1.948;2023-11-18T20:12:00;4.27;;;0.70;;
74519;SDS011;63002;48.134;-1.948;2023-11-18T20:14:26;4.22;;;0.82;;
74519;SDS011;63002;48.134;-1.948;2023-11-18T20:16:52;5.03;;;0.82;;
74519;SDS011;63002;48.134;-1.948;2023-11-18T20:19:19;3.60;;;0.80;;
74519;SDS011;63002;48.134;-1.948;2023-11-18T20:21:48;4.07;;;0.60;;
74519;SDS011;63002;48.134;-1.948;2023-11-18T20:24:14;7.32;;;1.00;;
74519;SDS011;63002;48.134;-1.948;2023-11-18T20:26:41;4.72;;;0.88;;
74519;SDS011;63002;48.134;-1.948;2023-11-18T20:29:07;4.72;;;0.60;;
74519;SDS011;63002;48.134;-1.948;2023-11-18T20:31:33;5.20;;;1.43;;
74519;SDS011;63002;48.134;-1.948;2023-11-18T20:34:01;4.57;;;0.60;;
74519;SDS011;63002;48.134;-1.948;2023-11-18T20:36:27;4.20;;;0.90;;
74519;SDS011;63002;48.134;-1.948;2023-11-18T20:38:54;5.97;;;0.70;;
74519;SDS011;63002;48.134;-1.948;2023-11-18T20:41:19;4.65;;;0.80;;
74519;SDS011;63002;48.134;-1.948;2023-11-18T20:43:45;3.00;;;0.60;;
74519;SDS011;63002;48.134;-1.948;2023-11-18T20:46:12;4.82;;;1.05;;
74519;SDS011;63002;48.134;-1.948;2023-11-18T20:48:39;3.80;;;0.80;;
74519;SDS011;63002;48.134;-1.948;2023-11-18T20:51:05;4.73;;;0.73;;
74519;SDS011;63002;48.134;-1.948;2023-11-18T20:53:33;4.15;;;0.68;;
74519;SDS011;63002;48.134;-1.948;2023-11-18T20:55:59;3.00;;;0.60;;
74519;SDS011;63002;48.134;-1.948;2023-11-18T20:58:25;4.28;;;0.60;;
74519;SDS011;63002;48.134;-1.948;2023-11-18T21:00:53;6.68;;;0.90;;
74519;SDS011;63002;48.134;-1.948;2023-11-18T21:03:20;4.10;;;0.60;;
74519;SDS011;63002;48.134;-1.948;2023-11-18T21:05:46;4.13;;;0.77;;